createdAt,value
2023-01-19T00:00:50.803Z,99417.97
2023-01-19T00:03:17.932Z,99428.00
2023-01-19T00:05:45.165Z,99422.41
2023-01-19T00:08:14.998Z,99423.44
2023-01-19T00:10:43.691Z,99427.16
2023-01-19T00:13:10.435Z,99423.31
2023-01-19T00:15:37.490Z,99426.44
2023-01-19T00:18:04.066Z,99430.25
2023-01-19T00:20:35.387Z,99423.50
2023-01-19T00:23:03.348Z,99423.22
2023-01-19T00:25:30.339Z,99418.72
2023-01-19T00:27:57.263Z,99418.03
2023-01-19T00:30:23.713Z,99420.25
2023-01-19T00:32:50.273Z,99426.28
2023-01-19T00:35:16.976Z,99428.66
2023-01-19T00:37:46.211Z,99427.78
2023-01-19T00:40:14.096Z,99441.97
2023-01-19T00:42:41.079Z,99441.16
2023-01-19T00:45:09.909Z,99439.47
2023-01-19T00:47:36.726Z,99435.72
2023-01-19T00:50:03.651Z,99448.97
2023-01-19T00:52:30.431Z,99449.03
2023-01-19T00:54:56.951Z,99450.19
2023-01-19T00:57:23.710Z,99452.56
2023-01-19T00:59:50.344Z,99448.34
2023-01-19T01:02:17.262Z,99451.50
2023-01-19T01:04:43.926Z,99454.91
2023-01-19T01:07:10.543Z,99457.53
2023-01-19T01:09:37.339Z,99459.63
2023-01-19T01:12:04.081Z,99455.31
2023-01-19T01:14:32.760Z,99460.19
2023-01-19T01:17:00.541Z,99457.78
2023-01-19T01:19:27.178Z,99457.44
2023-01-19T01:21:53.710Z,99465.81
2023-01-19T01:24:20.957Z,99463.66
2023-01-19T01:26:47.605Z,99466.38
2023-01-19T01:29:14.167Z,99471.56
2023-01-19T01:31:41.030Z,99465.81
2023-01-19T01:34:08.220Z,99461.66
2023-01-19T01:36:35.463Z,99462.53
2023-01-19T01:39:02.320Z,99464.97
2023-01-19T01:41:29.064Z,99469.72
2023-01-19T01:43:58.843Z,99471.72
2023-01-19T01:46:28.728Z,99475.88
2023-01-19T01:49:06.955Z,99470.53
2023-01-19T01:51:42.217Z,99473.81
2023-01-19T01:54:12.848Z,99476.44
2023-01-19T01:56:42.924Z,99481.03
2023-01-19T01:59:17.989Z,99474.84
2023-01-19T02:02:03.351Z,99474.03
2023-01-19T02:04:31.203Z,99471.94
2023-01-19T02:07:16.415Z,99476.63
2023-01-19T02:10:01.640Z,99469.63
2023-01-19T02:12:47.300Z,99472.75
2023-01-19T02:15:20.143Z,99474.31
2023-01-19T02:17:47.450Z,99475.41
2023-01-19T02:20:14.601Z,99467.72
2023-01-19T02:22:50.078Z,99468.22
2023-01-19T02:25:19.042Z,99469.84
2023-01-19T02:27:45.956Z,99476.78
2023-01-19T02:30:13.664Z,99473.22
2023-01-19T02:32:40.299Z,99487.59
2023-01-19T02:35:07.222Z,99487.97
2023-01-19T02:37:37.576Z,99483.91
2023-01-19T02:40:06.981Z,99477.63
2023-01-19T02:42:39.674Z,99484.53
2023-01-19T02:45:09.473Z,99483.41
2023-01-19T02:47:43.042Z,99478.06
2023-01-19T02:50:28.739Z,99473.47
2023-01-19T02:53:17.588Z,99476.75
2023-01-19T02:55:53.764Z,99475.13
2023-01-19T02:58:33.533Z,99474.06
2023-01-19T03:01:32.595Z,99467.69
2023-01-19T03:04:25.142Z,99472.06
2023-01-19T03:07:00.711Z,99468.28
2023-01-19T03:09:44.532Z,99466.22
2023-01-19T03:12:26.916Z,99458.59
2023-01-19T03:15:00.861Z,99461.28
2023-01-19T03:17:31.024Z,99462.84
2023-01-19T03:19:57.934Z,99458.75
2023-01-19T03:22:29.066Z,99449.81
2023-01-19T03:25:01.124Z,99463.75
2023-01-19T03:27:31.223Z,99460.22
2023-01-19T03:30:05.877Z,99466.13
2023-01-19T03:32:39.828Z,99462.50
2023-01-19T03:35:13.378Z,99463.03
2023-01-19T03:37:43.509Z,99469.53
2023-01-19T03:40:11.447Z,99455.00
2023-01-19T03:42:39.662Z,99473.09
2023-01-19T03:45:07.361Z,99464.78
2023-01-19T03:47:35.283Z,99465.09
2023-01-19T03:50:05.407Z,99470.25
2023-01-19T03:52:33.779Z,99469.31
2023-01-19T03:55:05.622Z,99467.09
2023-01-19T03:57:32.377Z,99471.94
2023-01-19T03:59:58.948Z,99473.63
2023-01-19T04:02:25.442Z,99474.81
2023-01-19T04:04:51.940Z,99475.78
2023-01-19T04:07:18.856Z,99478.22
2023-01-19T04:09:45.363Z,99480.69
2023-01-19T04:12:12.265Z,99490.28
2023-01-19T04:14:38.827Z,99490.59
2023-01-19T04:17:05.421Z,99489.59
2023-01-19T04:19:31.967Z,99485.28
2023-01-19T04:21:58.573Z,99483.03
2023-01-19T04:24:25.177Z,99481.19
2023-01-19T04:26:53.476Z,99472.38
2023-01-19T04:29:20.022Z,99473.53
2023-01-19T04:31:46.540Z,99475.53
2023-01-19T04:34:13.092Z,99474.25
2023-01-19T04:36:39.646Z,99470.34
2023-01-19T04:39:08.287Z,99462.16
2023-01-19T04:41:34.905Z,99466.22
2023-01-19T04:44:01.453Z,99473.16
2023-01-19T04:46:28.236Z,99471.25
2023-01-19T04:48:54.738Z,99470.94
2023-01-19T04:51:21.234Z,99470.00
2023-01-19T04:53:47.814Z,99468.47
2023-01-19T04:56:14.370Z,99469.31
2023-01-19T04:58:40.955Z,99471.59
2023-01-19T05:01:09.639Z,99477.28
2023-01-19T05:03:36.491Z,99472.81
2023-01-19T05:06:03.326Z,99470.47
2023-01-19T05:08:30.029Z,99475.25
2023-01-19T05:10:57.540Z,99484.69
2023-01-19T05:13:24.163Z,99479.03
2023-01-19T05:15:50.736Z,99482.81
2023-01-19T05:18:17.979Z,99490.09
2023-01-19T05:20:44.564Z,99487.25
2023-01-19T05:23:11.197Z,99478.47
2023-01-19T05:25:37.830Z,99486.47
2023-01-19T05:28:04.625Z,99489.75
2023-01-19T05:30:31.329Z,99481.03
2023-01-19T05:32:58.002Z,99489.13
2023-01-19T05:35:35.397Z,99493.03
2023-01-19T05:38:02.721Z,99489.25
2023-01-19T05:40:29.404Z,99499.09
2023-01-19T05:43:00.643Z,99500.19
2023-01-19T05:45:28.292Z,99501.22
2023-01-19T05:47:55.165Z,99504.38
2023-01-19T05:50:21.736Z,99509.66
2023-01-19T05:52:48.514Z,99507.41
2023-01-19T05:55:32.267Z,99504.00
2023-01-19T05:57:58.864Z,99510.47
2023-01-19T06:00:27.493Z,99521.56
2023-01-19T06:02:54.105Z,99523.19
2023-01-19T06:05:20.747Z,99528.09
2023-01-19T06:07:47.437Z,99534.16
2023-01-19T06:10:13.974Z,99533.59
2023-01-19T06:12:43.633Z,99533.97
2023-01-19T06:15:10.599Z,99540.38
2023-01-19T06:17:37.156Z,99529.13
2023-01-19T06:20:05.347Z,99536.19
2023-01-19T06:22:31.921Z,99538.19
2023-01-19T06:24:58.445Z,99536.91
2023-01-19T06:27:24.964Z,99531.44
2023-01-19T06:29:51.539Z,99526.97
2023-01-19T06:32:18.179Z,99535.72
2023-01-19T06:34:44.877Z,99530.78
2023-01-19T06:37:11.673Z,99536.19
2023-01-19T06:39:40.956Z,99533.34
2023-01-19T06:42:08.257Z,99537.16
2023-01-19T06:44:34.852Z,99529.41
2023-01-19T06:47:15.655Z,99535.56
2023-01-19T06:49:42.848Z,99529.78
2023-01-19T06:52:11.468Z,99541.47
2023-01-19T06:54:38.232Z,99538.22
2023-01-19T06:57:04.776Z,99542.25
2023-01-19T06:59:31.738Z,99546.16
2023-01-19T07:02:01.018Z,99544.31
2023-01-19T07:04:47.403Z,99544.09
2023-01-19T07:07:14.045Z,99550.69
2023-01-19T07:09:40.594Z,99548.69
2023-01-19T07:12:07.855Z,99549.16
2023-01-19T07:14:35.550Z,99559.91
2023-01-19T07:17:02.966Z,99564.50
2023-01-19T07:19:29.707Z,99556.66
2023-01-19T07:21:56.254Z,99560.50
2023-01-19T07:24:23.717Z,99559.41
2023-01-19T07:26:50.271Z,99555.19
2023-01-19T07:29:16.867Z,99555.66
2023-01-19T07:31:43.452Z,99562.53
2023-01-19T07:34:12.387Z,99561.78
2023-01-19T07:36:39.114Z,99570.25
2023-01-19T07:39:08.509Z,99569.91
2023-01-19T07:41:35.610Z,99579.34
2023-01-19T07:44:02.212Z,99580.69
2023-01-19T07:46:28.744Z,99569.28
2023-01-19T07:48:55.595Z,99580.06
2023-01-19T07:51:22.188Z,99583.91
2023-01-19T07:53:52.153Z,99587.59
2023-01-19T07:56:18.726Z,99581.66
2023-01-19T07:58:45.305Z,99584.06
2023-01-19T08:01:13.306Z,99583.25
2023-01-19T08:03:39.948Z,99571.78
2023-01-19T08:06:07.255Z,99579.75
2023-01-19T08:08:34.165Z,99585.25
2023-01-19T08:11:00.641Z,99575.66
2023-01-19T08:13:27.278Z,99577.78
2023-01-19T08:15:54.235Z,99575.72
2023-01-19T08:18:21.106Z,99571.97
2023-01-19T08:20:47.727Z,99576.72
2023-01-19T08:23:14.340Z,99591.59
2023-01-19T08:25:44.360Z,99587.78
2023-01-19T08:28:13.995Z,99583.91
2023-01-19T08:30:43.587Z,99592.00
2023-01-19T08:33:11.764Z,99584.06
2023-01-19T08:35:40.879Z,99587.81
2023-01-19T08:38:08.720Z,99590.38
2023-01-19T08:40:38.416Z,99587.28
2023-01-19T08:43:07.769Z,99590.06
2023-01-19T08:45:41.375Z,99589.56
2023-01-19T08:48:08.049Z,99592.53
2023-01-19T08:50:34.937Z,99585.31
2023-01-19T08:53:03.667Z,99585.84
2023-01-19T08:55:30.545Z,99585.66
2023-01-19T08:57:59.999Z,99586.22
2023-01-19T09:00:27.209Z,99595.00
2023-01-19T09:02:54.914Z,99585.47
2023-01-19T09:05:21.802Z,99587.44
2023-01-19T09:07:48.523Z,99598.41
2023-01-19T09:10:16.179Z,99596.94
2023-01-19T09:12:44.842Z,99599.09
2023-01-19T09:15:13.782Z,99603.97
2023-01-19T09:17:43.710Z,99594.88
2023-01-19T09:20:10.873Z,99606.78
2023-01-19T09:22:38.489Z,99610.41
2023-01-19T09:25:08.353Z,99599.09
2023-01-19T09:27:35.715Z,99606.44
2023-01-19T09:30:03.437Z,99606.13
2023-01-19T09:32:30.066Z,99605.19
2023-01-19T09:34:56.801Z,99616.47
2023-01-19T09:37:23.373Z,99610.81
2023-01-19T09:39:49.991Z,99606.94
2023-01-19T09:42:44.555Z,99607.66
2023-01-19T09:45:18.840Z,99605.38
2023-01-19T09:47:48.608Z,99606.34
2023-01-19T09:50:26.739Z,99608.44
2023-01-19T09:53:03.075Z,99611.72
2023-01-19T09:55:30.760Z,99609.09
2023-01-19T09:57:57.275Z,99605.94
2023-01-19T10:00:25.625Z,99615.19
2023-01-19T10:02:58.904Z,99607.00
2023-01-19T10:05:38.734Z,99603.75
2023-01-19T10:08:20.542Z,99602.56
2023-01-19T10:10:52.541Z,99608.22
2023-01-19T10:13:28.877Z,99601.97
2023-01-19T10:16:07.287Z,99606.97
2023-01-19T10:18:51.883Z,99608.31
2023-01-19T10:21:26.206Z,99606.06
2023-01-19T10:24:00.876Z,99602.16
2023-01-19T10:26:36.330Z,99604.16
2023-01-19T10:29:10.897Z,99604.44
2023-01-19T10:31:44.756Z,99614.97
2023-01-19T10:34:20.974Z,99606.66
2023-01-19T10:36:55.696Z,99609.56
2023-01-19T10:39:22.569Z,99606.16
2023-01-19T10:41:51.522Z,99599.13
2023-01-19T10:44:26.620Z,99600.97
2023-01-19T10:46:56.743Z,99599.56
2023-01-19T10:49:36.163Z,99599.75
2023-01-19T10:52:05.239Z,99601.41
2023-01-19T10:54:33.903Z,99615.72
2023-01-19T10:57:07.195Z,99601.56
2023-01-19T10:59:44.228Z,99611.03
2023-01-19T11:02:18.663Z,99604.00
2023-01-19T11:04:50.182Z,99597.75
2023-01-19T11:07:25.894Z,99606.00
2023-01-19T11:10:17.707Z,99603.50
2023-01-19T11:12:52.817Z,99604.38
2023-01-19T11:15:41.683Z,99598.22
2023-01-19T11:18:08.202Z,99608.84
2023-01-19T11:20:53.656Z,99603.09
2023-01-19T11:23:31.927Z,99606.47
2023-01-19T11:26:01.520Z,99610.19
2023-01-19T11:28:44.186Z,99610.66
2023-01-19T11:31:11.642Z,99603.56
2023-01-19T11:33:49.736Z,99596.44
2023-01-19T11:36:21.175Z,99596.84
2023-01-19T11:38:53.327Z,99598.44
2023-01-19T11:41:22.522Z,99598.31
2023-01-19T11:43:52.819Z,99603.38
2023-01-19T11:46:20.763Z,99607.19
2023-01-19T11:49:01.706Z,99594.84
2023-01-19T11:51:34.328Z,99597.25
2023-01-19T11:54:02.672Z,99599.78
2023-01-19T11:56:29.687Z,99598.78
2023-01-19T11:58:56.449Z,99602.34
2023-01-19T12:01:35.223Z,99603.88
2023-01-19T12:04:14.321Z,99597.13
2023-01-19T12:06:44.752Z,99601.97
2023-01-19T12:09:13.425Z,99609.94
2023-01-19T12:11:44.533Z,99607.75
2023-01-19T12:14:21.484Z,99604.84
2023-01-19T12:16:51.885Z,99612.78
2023-01-19T12:19:25.091Z,99611.56
2023-01-19T12:21:52.598Z,99603.16
2023-01-19T12:24:42.332Z,99614.56
2023-01-19T12:27:31.933Z,99607.31
2023-01-19T12:29:58.761Z,99607.81
2023-01-19T12:32:36.852Z,99615.66
2023-01-19T12:35:03.530Z,99608.53
2023-01-19T12:37:36.432Z,99606.06
2023-01-19T12:40:21.705Z,99608.91
2023-01-19T12:42:56.683Z,99604.78
2023-01-19T12:45:28.554Z,99607.16
2023-01-19T12:47:56.276Z,99606.50
2023-01-19T12:50:25.868Z,99603.13
2023-01-19T12:53:02.839Z,99600.38
2023-01-19T12:55:37.577Z,99603.03
2023-01-19T12:58:18.539Z,99604.66
2023-01-19T13:00:48.206Z,99614.22
2023-01-19T13:03:17.534Z,99606.78
2023-01-19T13:05:44.052Z,99599.25
2023-01-19T13:08:11.402Z,99603.22
2023-01-19T13:11:00.034Z,99605.03
2023-01-19T13:13:31.764Z,99609.06
2023-01-19T13:16:28.008Z,99612.63
2023-01-19T13:18:59.495Z,99607.41
2023-01-19T13:21:35.258Z,99599.84
2023-01-19T13:24:01.925Z,99605.97
2023-01-19T13:26:32.612Z,99615.28
2023-01-19T13:29:07.871Z,99621.75
2023-01-19T13:31:36.604Z,99615.44
2023-01-19T13:34:10.654Z,99612.47
2023-01-19T13:36:41.315Z,99618.97
2023-01-19T13:39:23.479Z,99622.34
2023-01-19T13:41:54.157Z,99617.59
2023-01-19T13:44:32.223Z,99629.16
2023-01-19T13:46:59.850Z,99625.88
2023-01-19T13:49:33.947Z,99624.97
2023-01-19T13:52:13.765Z,99632.88
2023-01-19T13:54:49.965Z,99637.75
2023-01-19T13:57:45.331Z,99632.69
2023-01-19T14:00:14.606Z,99641.13
2023-01-19T14:02:52.509Z,99633.94
2023-01-19T14:05:28.901Z,99641.13
2023-01-19T14:08:13.476Z,99642.53
2023-01-19T14:10:42.659Z,99646.53
2023-01-19T14:13:25.182Z,99650.72
2023-01-19T14:15:55.411Z,99647.88
2023-01-19T14:18:22.023Z,99652.25
2023-01-19T14:21:15.552Z,99649.34
2023-01-19T14:23:47.191Z,99656.41
2023-01-19T14:26:51.887Z,99651.00
2023-01-19T14:29:21.390Z,99656.25
2023-01-19T14:31:50.868Z,99659.31
2023-01-19T14:34:28.831Z,99671.47
2023-01-19T14:36:55.573Z,99666.84
2023-01-19T14:39:24.728Z,99665.97
2023-01-19T14:41:53.122Z,99673.00
2023-01-19T14:44:35.975Z,99669.78
2023-01-19T14:51:04.629Z,99678.56
2023-01-19T14:53:37.400Z,99685.63
2023-01-19T14:56:07.439Z,99681.31
2023-01-19T14:58:35.417Z,99684.09
2023-01-19T15:01:03.239Z,99688.59
2023-01-19T15:03:43.482Z,99681.84
2023-01-19T15:06:17.868Z,99681.19
2023-01-19T15:08:45.524Z,99682.91
2023-01-19T15:11:16.568Z,99682.72
2023-01-19T15:13:44.656Z,99689.22
2023-01-19T15:16:11.274Z,99693.31
2023-01-19T15:18:38.805Z,99688.84
2023-01-19T15:21:05.766Z,99692.72
2023-01-19T15:23:33.077Z,99696.69
2023-01-19T15:26:01.099Z,99697.06
2023-01-19T15:28:27.898Z,99694.34
2023-01-19T15:30:54.606Z,99703.19
2023-01-19T15:33:24.630Z,99702.88
2023-01-19T15:35:52.147Z,99710.72
2023-01-19T15:38:18.845Z,99706.78
2023-01-19T15:40:49.530Z,99705.50
2023-01-19T15:43:17.696Z,99707.22
2023-01-19T15:45:48.021Z,99708.22
2023-01-19T15:48:14.760Z,99707.63
2023-01-19T15:50:45.322Z,99713.72
2023-01-19T15:53:18.006Z,99711.97
2023-01-19T15:55:48.319Z,99712.81
2023-01-19T15:58:15.021Z,99713.97
2023-01-19T16:00:42.845Z,99719.34
2023-01-19T16:03:10.543Z,99717.84
2023-01-19T16:05:42.855Z,99721.81
2023-01-19T16:08:11.420Z,99717.25
2023-01-19T16:10:38.051Z,99719.09
2023-01-19T16:13:04.640Z,99722.16
2023-01-19T16:15:31.959Z,99725.78
2023-01-19T16:17:58.643Z,99730.78
2023-01-19T16:20:31.302Z,99727.56
2023-01-19T16:23:13.893Z,99730.03
2023-01-19T16:25:41.269Z,99731.81
2023-01-19T16:28:08.321Z,99731.13
2023-01-19T16:30:34.928Z,99741.31
2023-01-19T16:33:01.585Z,99731.44
2023-01-19T16:35:28.080Z,99735.66
2023-01-19T16:37:54.599Z,99738.75
2023-01-19T16:40:21.266Z,99737.75
2023-01-19T16:42:47.853Z,99733.06
2023-01-19T16:45:14.596Z,99735.22
2023-01-19T16:47:41.331Z,99738.19
2023-01-19T16:50:11.365Z,99745.19
2023-01-19T16:52:38.437Z,99738.78
2023-01-19T16:55:09.343Z,99742.09
2023-01-19T16:57:36.923Z,99746.28
2023-01-19T17:00:04.248Z,99744.88
2023-01-19T17:02:30.831Z,99749.44
2023-01-19T17:05:00.085Z,99741.28
2023-01-19T17:07:28.005Z,99748.22
2023-01-19T17:09:54.657Z,99738.50
2023-01-19T17:12:21.305Z,99746.84
2023-01-19T17:14:48.137Z,99750.06
2023-01-19T17:17:15.011Z,99748.22
2023-01-19T17:19:41.633Z,99749.59
2023-01-19T17:22:08.337Z,99746.97
2023-01-19T17:24:34.994Z,99750.41
2023-01-19T17:27:01.571Z,99757.97
2023-01-19T17:29:28.165Z,99755.56
2023-01-19T17:31:54.681Z,99761.63
2023-01-19T17:34:21.270Z,99756.66
2023-01-19T17:36:50.601Z,99757.63
2023-01-19T17:39:18.460Z,99758.84
2023-01-19T17:41:45.007Z,99762.41
2023-01-19T17:44:11.732Z,99765.22
2023-01-19T17:46:38.672Z,99760.63
2023-01-19T17:49:07.229Z,99762.97
2023-01-19T17:51:34.605Z,99765.44
2023-01-19T17:54:01.243Z,99768.84
2023-01-19T17:56:30.226Z,99767.47
2023-01-19T17:58:58.064Z,99769.31
2023-01-19T18:01:27.076Z,99770.59
2023-01-19T18:03:54.182Z,99769.66
2023-01-19T18:06:21.593Z,99771.81
2023-01-19T18:08:49.318Z,99774.44
2023-01-19T18:11:17.993Z,99777.50
2023-01-19T18:13:45.756Z,99779.50
2023-01-19T18:16:28.440Z,99785.19
2023-01-19T18:18:56.944Z,99784.88
2023-01-19T18:21:24.951Z,99781.81
2023-01-19T18:23:51.948Z,99782.88
2023-01-19T18:26:20.526Z,99784.28
2023-01-19T18:28:48.488Z,99780.88
2023-01-19T18:31:18.845Z,99785.84
2023-01-19T18:33:49.770Z,99779.69
2023-01-19T18:36:16.983Z,99789.19
2023-01-19T18:38:44.393Z,99786.69
2023-01-19T18:41:13.055Z,99789.59
2023-01-19T18:43:40.779Z,99787.47
2023-01-19T18:46:07.753Z,99789.97
2023-01-19T18:48:34.791Z,99799.75
2023-01-19T18:51:06.492Z,99797.72
2023-01-19T18:53:33.107Z,99797.22
2023-01-19T18:56:02.024Z,99802.91
2023-01-19T18:58:29.871Z,99797.88
2023-01-19T19:00:56.641Z,99795.09
2023-01-19T19:03:23.389Z,99799.25
2023-01-19T19:05:50.253Z,99802.31
2023-01-19T19:08:16.947Z,99796.19
2023-01-19T19:10:43.804Z,99796.44
2023-01-19T19:13:15.628Z,99793.56
2023-01-19T19:15:44.118Z,99803.84
2023-01-19T19:18:13.254Z,99800.00
2023-01-19T19:20:39.950Z,99796.94
2023-01-19T19:23:06.907Z,99805.72
2023-01-19T19:25:33.536Z,99801.13
2023-01-19T19:28:00.125Z,99803.31
2023-01-19T19:30:26.707Z,99805.00
2023-01-19T19:32:54.578Z,99808.06
2023-01-19T19:35:21.486Z,99806.16
2023-01-19T19:37:48.614Z,99799.47
2023-01-19T19:40:15.693Z,99809.69
2023-01-19T19:42:42.214Z,99813.22
2023-01-19T19:45:09.339Z,99812.19
2023-01-19T19:47:35.810Z,99817.97
2023-01-19T19:50:02.616Z,99820.75
2023-01-19T19:52:29.192Z,99808.44
2023-01-19T19:54:55.920Z,99814.41
2023-01-19T19:57:22.644Z,99820.16
2023-01-19T19:59:49.183Z,99821.72
2023-01-19T20:02:15.830Z,99823.53
2023-01-19T20:04:43.017Z,99822.22
2023-01-19T20:07:09.740Z,99823.69
2023-01-19T20:09:36.476Z,99824.97
2023-01-19T20:12:03.111Z,99818.94
2023-01-19T20:14:29.726Z,99828.25
2023-01-19T20:16:56.262Z,99824.78
2023-01-19T20:19:22.837Z,99829.84
2023-01-19T20:21:54.682Z,99828.78
2023-01-19T20:24:21.284Z,99836.22
2023-01-19T20:26:52.307Z,99834.00
2023-01-19T20:29:19.831Z,99835.25
2023-01-19T20:31:53.107Z,99832.72
2023-01-19T20:34:22.272Z,99834.50
2023-01-19T20:36:50.296Z,99829.19
2023-01-19T20:39:18.486Z,99836.81
2023-01-19T20:41:45.577Z,99840.19
2023-01-19T20:44:15.323Z,99837.72
2023-01-19T20:46:42.346Z,99842.31
2023-01-19T20:49:09.158Z,99841.63
2023-01-19T20:51:37.349Z,99835.38
2023-01-19T20:54:04.079Z,99832.72
2023-01-19T20:56:30.557Z,99834.97
2023-01-19T20:58:58.688Z,99838.81
2023-01-19T21:01:26.273Z,99839.56
2023-01-19T21:03:52.960Z,99838.81
2023-01-19T21:06:21.493Z,99836.00
2023-01-19T21:08:51.580Z,99849.09
2023-01-19T21:11:20.904Z,99855.41
2023-01-19T21:13:48.543Z,99862.09
2023-01-19T21:16:15.737Z,99860.41
2023-01-19T21:18:42.780Z,99858.59
2023-01-19T21:21:20.853Z,99867.47
2023-01-19T21:23:59.940Z,99869.41
2023-01-19T21:26:26.803Z,99868.09
2023-01-19T21:28:53.494Z,99870.22
2023-01-19T21:31:22.519Z,99872.59
2023-01-19T21:33:53.403Z,99885.09
2023-01-19T21:36:21.142Z,99880.44
2023-01-19T21:38:48.044Z,99879.03
2023-01-19T21:41:16.253Z,99881.63
2023-01-19T21:43:43.182Z,99893.56
2023-01-19T21:46:29.212Z,99890.25
2023-01-19T21:48:57.346Z,99891.53
2023-01-19T21:51:23.971Z,99895.88
2023-01-19T21:53:52.154Z,99891.66
2023-01-19T21:56:18.818Z,99898.88
2023-01-19T21:58:47.146Z,99900.22
2023-01-19T22:01:14.003Z,99901.84
2023-01-19T22:03:41.274Z,99902.91
2023-01-19T22:06:11.260Z,99914.03
2023-01-19T22:08:38.503Z,99909.66
2023-01-19T22:11:11.109Z,99905.16
2023-01-19T22:13:40.312Z,99907.56
2023-01-19T22:16:10.385Z,99913.75
2023-01-19T22:18:38.734Z,99915.03
2023-01-19T22:21:14.678Z,99910.50
2023-01-19T22:23:42.155Z,99919.56
2023-01-19T22:26:10.726Z,99926.16
2023-01-19T22:28:38.004Z,99923.34
2023-01-19T22:31:06.947Z,99930.69
2023-01-19T22:33:33.851Z,99924.69
2023-01-19T22:36:31.017Z,99928.50
2023-01-19T22:38:59.907Z,99933.41
2023-01-19T22:41:31.896Z,99933.69
2023-01-19T22:44:04.866Z,99946.25
2023-01-19T22:46:33.760Z,99943.16
2023-01-19T22:49:00.478Z,99939.50
2023-01-19T22:51:29.629Z,99936.22
2023-01-19T22:53:56.684Z,99938.16
2023-01-19T22:56:28.381Z,99941.16
2023-01-19T22:58:55.302Z,99940.19
2023-01-19T23:01:37.020Z,99937.41
2023-01-19T23:04:05.598Z,99943.25
2023-01-19T23:06:35.404Z,99947.91
2023-01-19T23:09:06.660Z,99945.94
2023-01-19T23:11:36.787Z,99948.41
2023-01-19T23:14:04.558Z,99952.38
2023-01-19T23:16:31.055Z,99947.72
2023-01-19T23:18:58.486Z,99954.22
2023-01-19T23:21:29.931Z,99954.97
2023-01-19T23:24:01.527Z,99953.81
2023-01-19T23:26:30.741Z,99958.78
2023-01-19T23:28:59.709Z,99957.72
2023-01-19T23:31:32.129Z,99967.88
2023-01-19T23:34:01.445Z,99960.97
2023-01-19T23:36:30.786Z,99961.22
2023-01-19T23:38:59.509Z,99964.56
2023-01-19T23:41:30.653Z,99964.00
2023-01-19T23:43:57.338Z,99965.00
2023-01-19T23:46:24.555Z,99970.06
2023-01-19T23:48:51.036Z,99972.28
2023-01-19T23:51:21.241Z,99971.88
2023-01-19T23:53:48.229Z,99969.06
2023-01-19T23:56:17.927Z,99964.38
2023-01-19T23:58:45.855Z,99961.22
